createdAt,value
2019-05-07T00:02:14.593Z,68.81
2019-05-07T00:04:44.092Z,68.86
2019-05-07T00:07:13.536Z,68.23
2019-05-07T00:09:43.212Z,68.00
2019-05-07T00:12:12.732Z,67.44
2019-05-07T00:14:43.022Z,66.84
2019-05-07T00:17:13.476Z,66.34
2019-05-07T00:19:43.287Z,66.41
2019-05-07T00:22:12.869Z,65.41
2019-05-07T00:24:42.774Z,64.91
2019-05-07T00:27:13.150Z,65.24
2019-05-07T00:29:43.032Z,63.41
2019-05-07T00:32:12.603Z,63.71
2019-05-07T00:34:46.301Z,64.26
2019-05-07T00:37:29.370Z,63.91
2019-05-07T00:40:17.198Z,64.53
2019-05-07T00:43:04.644Z,66.37
2019-05-07T00:48:26.799Z,69.80
2019-05-07T00:50:57.803Z,68.79
2019-05-07T00:53:27.168Z,66.71
2019-05-07T00:55:56.521Z,65.54
2019-05-07T00:58:27.058Z,65.28
2019-05-07T01:00:56.484Z,64.33
2019-05-07T01:03:25.848Z,63.54
2019-05-07T01:05:55.214Z,64.58
2019-05-07T01:08:24.585Z,63.83
2019-05-07T01:10:53.952Z,64.48
2019-05-07T01:13:23.612Z,64.02
2019-05-07T01:15:53.415Z,64.06
2019-05-07T01:18:23.468Z,64.28
2019-05-07T01:20:53.411Z,63.88
2019-05-07T01:23:23.163Z,64.22
2019-05-07T01:25:52.949Z,64.62
2019-05-07T01:28:22.558Z,65.57
2019-05-07T01:30:52.812Z,66.04
2019-05-07T01:33:24.185Z,65.81
2019-05-07T01:38:37.102Z,65.58
2019-05-07T01:41:06.472Z,65.02
2019-05-07T01:43:35.834Z,65.18
2019-05-07T01:46:05.217Z,65.07
2019-05-07T01:48:34.896Z,65.36
2019-05-07T01:51:04.299Z,65.16
2019-05-07T01:53:33.670Z,65.04
2019-05-07T01:56:03.416Z,64.55
2019-05-07T01:58:33.326Z,64.59
2019-05-07T02:01:03.058Z,65.56
2019-05-07T02:06:13.322Z,65.81
2019-05-07T02:08:50.274Z,66.16
2019-05-07T02:11:37.785Z,65.73
2019-05-07T02:14:07.140Z,64.48
2019-05-07T02:16:36.522Z,65.52
2019-05-07T02:19:08.774Z,63.77
2019-05-07T02:21:38.186Z,63.62
2019-05-07T02:24:07.609Z,63.13
2019-05-07T02:26:37.054Z,62.45
2019-05-07T02:29:06.496Z,62.11
2019-05-07T02:31:35.846Z,62.29
2019-05-07T02:34:05.194Z,61.97
2019-05-07T02:36:35.268Z,61.76
2019-05-07T02:39:24.102Z,61.66
2019-05-07T02:41:54.370Z,61.84
2019-05-07T02:44:23.816Z,61.96
2019-05-07T02:46:57.776Z,61.62
2019-05-07T02:49:28.765Z,61.52
2019-05-07T02:52:08.690Z,61.56
2019-05-07T02:54:55.845Z,60.71
2019-05-07T02:57:25.675Z,60.92
2019-05-07T02:59:55.047Z,61.06
2019-05-07T03:02:24.468Z,61.03
2019-05-07T03:04:53.833Z,61.35
2019-05-07T03:07:24.230Z,61.45
2019-05-07T03:09:54.173Z,61.36
2019-05-07T03:12:24.007Z,61.02
2019-05-07T03:14:54.056Z,61.24
2019-05-07T03:17:24.518Z,60.79
2019-05-07T03:19:55.612Z,60.81
2019-05-07T03:22:25.072Z,61.08
2019-05-07T03:25:05.389Z,61.41
2019-05-07T03:27:34.736Z,61.09
2019-05-07T03:32:47.613Z,60.84
2019-05-07T03:35:37.014Z,61.14
2019-05-07T03:38:05.669Z,61.23
2019-05-07T03:40:35.982Z,60.93
2019-05-07T03:43:06.175Z,60.43
2019-05-07T03:45:42.979Z,61.01
2019-05-07T03:48:15.578Z,60.36
2019-05-07T03:50:45.026Z,60.36
2019-05-07T03:53:14.597Z,60.61
2019-05-07T03:55:44.838Z,60.75
2019-05-07T03:58:14.991Z,60.91
2019-05-07T04:00:45.208Z,60.63
2019-05-07T04:03:18.974Z,60.76
2019-05-07T04:05:45.684Z,60.61
2019-05-07T04:08:15.130Z,60.80
2019-05-07T04:10:44.744Z,60.96
2019-05-07T04:13:14.253Z,60.59
2019-05-07T04:15:44.260Z,60.89
2019-05-07T04:18:13.792Z,60.76
2019-05-07T04:20:43.863Z,61.22
2019-05-07T04:23:14.234Z,61.00
2019-05-07T04:25:45.523Z,60.74
2019-05-07T04:28:33.489Z,60.91
2019-05-07T04:31:03.395Z,60.91
2019-05-07T04:33:37.464Z,60.77
2019-05-07T04:36:08.452Z,60.33
2019-05-07T04:38:37.887Z,60.67
2019-05-07T04:41:07.310Z,60.38
2019-05-07T04:43:36.761Z,60.40
2019-05-07T04:46:06.311Z,60.27
2019-05-07T04:48:35.658Z,59.86
2019-05-07T04:51:06.664Z,59.41
2019-05-07T04:53:36.023Z,59.13
2019-05-07T04:56:05.451Z,59.04
2019-05-07T04:58:34.805Z,58.17
2019-05-07T05:01:05.528Z,57.66
2019-05-07T05:03:38.984Z,56.74
2019-05-07T05:06:06.026Z,56.11
2019-05-07T05:08:35.583Z,55.87
2019-05-07T05:11:04.938Z,55.73
2019-05-07T05:13:34.374Z,55.00
2019-05-07T05:16:05.480Z,53.90
2019-05-07T05:18:34.855Z,54.22
2019-05-07T05:21:08.472Z,53.67
2019-05-07T05:23:45.662Z,52.24
2019-05-07T05:26:15.005Z,52.20
2019-05-07T05:28:44.362Z,52.96
2019-05-07T05:31:13.785Z,52.97
2019-05-07T05:33:43.260Z,52.68
2019-05-07T05:36:12.838Z,52.14
2019-05-07T05:38:42.609Z,51.96
2019-05-07T05:41:12.490Z,50.13
2019-05-07T05:43:52.814Z,50.16
2019-05-07T05:46:23.882Z,49.26
2019-05-07T05:48:53.263Z,49.68
2019-05-07T05:51:42.995Z,50.04
2019-05-07T05:54:26.374Z,49.24
2019-05-07T05:56:57.343Z,47.38
2019-05-07T05:59:47.879Z,48.41
2019-05-07T06:02:06.843Z,48.70
2019-05-07T06:04:56.136Z,48.00
2019-05-07T06:07:31.908Z,47.32
2019-05-07T06:10:17.978Z,47.41
2019-05-07T06:12:49.121Z,47.04
2019-05-07T06:15:23.082Z,45.67
2019-05-07T06:18:18.816Z,44.80
2019-05-07T06:20:46.153Z,44.12
2019-05-07T06:23:23.334Z,44.74
2019-05-07T06:25:52.916Z,44.58
2019-05-07T06:28:22.601Z,44.05
2019-05-07T06:30:52.720Z,43.81
2019-05-07T06:33:23.094Z,43.84
2019-05-07T06:35:52.700Z,44.65
2019-05-07T06:38:23.211Z,45.54
2019-05-07T06:40:56.937Z,45.71
2019-05-07T06:43:46.394Z,44.65
2019-05-07T06:46:15.833Z,44.71
2019-05-07T06:48:46.302Z,45.44
2019-05-07T06:51:17.550Z,44.87
2019-05-07T06:53:47.140Z,44.54
2019-05-07T06:56:16.483Z,44.64
2019-05-07T06:58:52.485Z,43.66
2019-05-07T07:01:28.973Z,43.13
2019-05-07T07:04:15.381Z,42.56
2019-05-07T07:06:49.227Z,43.02
2019-05-07T07:09:22.279Z,42.76
2019-05-07T07:11:58.664Z,43.49
2019-05-07T07:14:28.035Z,44.71
2019-05-07T07:16:57.497Z,44.59
2019-05-07T07:19:26.846Z,44.46
2019-05-07T07:21:56.263Z,45.13
2019-05-07T07:24:25.637Z,44.89
2019-05-07T07:26:54.984Z,45.54
2019-05-07T07:29:26.000Z,44.69
2019-05-07T07:31:57.053Z,43.59
2019-05-07T07:34:27.880Z,43.95
2019-05-07T07:37:15.799Z,42.09
2019-05-07T07:39:45.466Z,41.51
2019-05-07T07:42:18.101Z,41.41
2019-05-07T07:44:49.069Z,40.98
2019-05-07T07:47:18.545Z,41.06
2019-05-07T07:49:47.998Z,41.06
2019-05-07T07:52:17.726Z,40.34
2019-05-07T07:54:53.004Z,40.31
2019-05-07T08:00:40.053Z,38.28
2019-05-07T08:03:13.234Z,39.03
2019-05-07T08:05:42.732Z,39.16
2019-05-07T08:08:12.926Z,38.50
2019-05-07T08:10:42.806Z,38.54
2019-05-07T08:13:16.783Z,38.41
2019-05-07T08:15:51.930Z,36.61
2019-05-07T08:18:17.506Z,36.97
2019-05-07T08:20:46.849Z,36.97
2019-05-07T08:23:16.176Z,38.21
2019-05-07T08:25:48.236Z,38.01
2019-05-07T08:28:23.188Z,38.03
2019-05-07T08:30:57.359Z,36.90
2019-05-07T08:33:28.378Z,36.60
2019-05-07T08:36:17.825Z,36.43
2019-05-07T08:38:52.870Z,37.11
2019-05-07T08:41:23.724Z,37.14
2019-05-07T08:44:11.712Z,37.14
2019-05-07T08:46:53.998Z,35.82
2019-05-07T08:49:35.720Z,35.19
2019-05-07T08:52:03.817Z,34.62
2019-05-07T08:54:34.368Z,34.62
2019-05-07T08:57:08.257Z,35.57
2019-05-07T08:59:37.872Z,35.37
2019-05-07T09:02:12.617Z,34.52
2019-05-07T09:04:44.368Z,34.52
2019-05-07T09:07:13.519Z,34.19
2019-05-07T09:09:42.977Z,34.19
2019-05-07T09:12:12.657Z,34.42
2019-05-07T09:14:42.761Z,33.98
2019-05-07T09:17:15.672Z,34.16
2019-05-07T09:19:51.560Z,34.36
2019-05-07T09:22:19.699Z,34.36
2019-05-07T09:24:53.713Z,34.51
2019-05-07T09:27:28.958Z,33.88
2019-05-07T09:30:17.102Z,34.29
2019-05-07T09:32:52.187Z,34.48
2019-05-07T09:35:26.178Z,34.48
2019-05-07T09:38:12.242Z,34.53
2019-05-07T09:40:42.238Z,34.45
2019-05-07T09:43:11.774Z,33.63
2019-05-07T09:45:42.050Z,33.20
2019-05-07T09:48:13.393Z,33.20
2019-05-07T09:50:44.443Z,34.42
2019-05-07T09:53:13.922Z,34.47
2019-05-07T09:55:44.758Z,34.40
2019-05-07T09:58:14.186Z,34.69
2019-05-07T10:00:44.136Z,34.69
2019-05-07T10:03:15.170Z,35.20
2019-05-07T10:05:51.869Z,34.05
2019-05-07T10:08:39.632Z,33.25
2019-05-07T10:11:12.119Z,32.62
2019-05-07T10:13:44.750Z,32.99
2019-05-07T10:16:15.855Z,33.69
2019-05-07T10:18:45.740Z,32.37
2019-05-07T10:21:15.581Z,32.37
2019-05-07T10:23:48.273Z,32.71
2019-05-07T10:26:26.732Z,33.11
2019-05-07T10:31:49.215Z,33.17
2019-05-07T10:34:22.898Z,33.00
2019-05-07T10:36:53.828Z,32.29
2019-05-07T10:39:23.433Z,32.42
2019-05-07T10:41:57.819Z,33.27
2019-05-07T10:44:29.295Z,33.27
2019-05-07T10:47:17.832Z,32.25
2019-05-07T10:50:05.001Z,31.54
2019-05-07T10:52:34.683Z,32.01
2019-05-07T10:55:04.480Z,32.01
2019-05-07T10:57:33.987Z,31.75
2019-05-07T11:00:03.665Z,32.85
2019-05-07T11:02:33.416Z,33.36
2019-05-07T11:05:07.983Z,32.56
2019-05-07T11:07:42.179Z,32.66
2019-05-07T11:10:14.789Z,32.21
2019-05-07T11:12:46.052Z,31.87
2019-05-07T11:15:27.302Z,31.03
2019-05-07T11:17:59.554Z,31.25
2019-05-07T11:20:29.171Z,32.71
2019-05-07T11:23:04.230Z,32.66
2019-05-07T11:25:37.926Z,31.69
2019-05-07T11:28:07.335Z,31.03
2019-05-07T11:30:36.895Z,31.68
2019-05-07T11:33:08.083Z,30.96
2019-05-07T11:35:37.823Z,30.96
2019-05-07T11:38:18.667Z,30.36
2019-05-07T11:40:44.866Z,31.28
2019-05-07T11:43:15.888Z,31.28
2019-05-07T11:46:02.030Z,31.69
2019-05-07T11:48:38.388Z,31.00
2019-05-07T11:51:12.377Z,31.36
2019-05-07T11:54:02.090Z,32.36
2019-05-07T11:56:33.322Z,32.36
2019-05-07T11:59:05.834Z,31.94
2019-05-07T12:01:46.935Z,32.95
2019-05-07T12:04:12.505Z,32.95
2019-05-07T12:06:42.252Z,31.83
2019-05-07T12:09:12.166Z,32.42
2019-05-07T12:11:42.585Z,32.71
2019-05-07T12:14:12.554Z,33.09
2019-05-07T12:16:42.690Z,33.09
2019-05-07T12:19:16.599Z,32.74
2019-05-07T12:21:48.456Z,31.89
2019-05-07T12:24:19.589Z,32.27
2019-05-07T12:26:53.130Z,32.27
2019-05-07T12:29:22.688Z,32.33
2019-05-07T12:32:02.804Z,32.45
2019-05-07T12:34:39.891Z,32.45
2019-05-07T12:37:09.544Z,32.81
2019-05-07T12:39:47.867Z,33.36
2019-05-07T12:42:22.309Z,33.12
2019-05-07T12:44:52.379Z,33.12
2019-05-07T12:47:22.539Z,34.69
2019-05-07T12:49:52.244Z,35.60
2019-05-07T12:52:23.434Z,35.60
2019-05-07T12:54:57.463Z,35.39
2019-05-07T12:57:26.899Z,35.99
2019-05-07T12:59:57.910Z,36.50
2019-05-07T13:02:40.880Z,36.82
2019-05-07T13:05:07.768Z,38.60
2019-05-07T13:07:38.761Z,39.25
2019-05-07T13:10:08.790Z,39.82
2019-05-07T13:12:38.317Z,40.25
2019-05-07T13:15:20.524Z,38.94
2019-05-07T13:17:39.211Z,38.80
2019-05-07T13:20:08.805Z,39.25
2019-05-07T13:22:38.251Z,39.62
2019-05-07T13:25:08.213Z,39.06
2019-05-07T13:27:40.045Z,37.46
2019-05-07T13:30:08.932Z,36.86
2019-05-07T13:32:41.906Z,37.54
2019-05-07T13:35:14.406Z,37.06
2019-05-07T13:37:52.792Z,37.11
2019-05-07T13:40:39.105Z,36.48
2019-05-07T13:43:11.882Z,36.18
2019-05-07T13:45:48.992Z,35.44
2019-05-07T13:48:22.652Z,36.02
2019-05-07T13:50:55.286Z,37.01
2019-05-07T13:53:26.095Z,38.53
2019-05-07T13:56:03.272Z,38.08
2019-05-07T13:58:33.034Z,37.90
2019-05-07T14:01:20.033Z,37.36
2019-05-07T14:03:49.733Z,38.09
2019-05-07T14:06:36.992Z,37.63
2019-05-07T14:09:10.891Z,37.80
2019-05-07T14:11:42.322Z,37.68
2019-05-07T14:14:12.284Z,38.26
2019-05-07T14:16:44.974Z,38.95
2019-05-07T14:19:14.744Z,38.95
2019-05-07T14:21:44.302Z,39.63
2019-05-07T14:24:14.916Z,39.45
2019-05-07T14:26:44.434Z,40.71
2019-05-07T14:29:13.952Z,40.81
2019-05-07T14:31:43.414Z,41.25
2019-05-07T14:34:17.391Z,40.65
2019-05-07T14:36:48.399Z,41.98
2019-05-07T14:39:17.754Z,42.82
2019-05-07T14:41:48.763Z,43.54
2019-05-07T14:44:19.010Z,44.15
2019-05-07T14:46:53.642Z,45.89
2019-05-07T14:49:22.619Z,46.22
2019-05-07T14:51:53.942Z,46.97
2019-05-07T14:54:23.097Z,47.07
2019-05-07T14:56:52.454Z,47.41
2019-05-07T14:59:21.810Z,47.60
2019-05-07T15:01:52.223Z,47.75
2019-05-07T15:04:22.199Z,47.94
2019-05-07T15:06:51.999Z,47.71
2019-05-07T15:09:22.391Z,46.87
2019-05-07T15:11:52.682Z,46.95
2019-05-07T15:14:22.177Z,47.21
2019-05-07T15:16:53.186Z,46.77
2019-05-07T15:19:22.742Z,47.01
2019-05-07T15:22:09.871Z,47.06
2019-05-07T15:24:39.362Z,47.84
2019-05-07T15:27:08.864Z,48.25
2019-05-07T15:29:42.078Z,48.87
2019-05-07T15:32:12.593Z,48.83
2019-05-07T15:34:42.296Z,49.10
2019-05-07T15:37:12.292Z,49.06
2019-05-07T15:39:42.188Z,50.03
2019-05-07T15:42:11.684Z,50.87
2019-05-07T15:44:43.078Z,51.52
2019-05-07T15:47:13.893Z,51.47
2019-05-07T15:49:43.339Z,51.78
2019-05-07T15:52:14.343Z,52.20
2019-05-07T15:54:43.732Z,51.98
2019-05-07T15:57:14.779Z,52.43
2019-05-07T15:59:44.160Z,52.44
2019-05-07T16:02:15.201Z,52.45
2019-05-07T16:04:44.562Z,52.29
2019-05-07T16:07:14.215Z,52.90
2019-05-07T16:09:43.639Z,52.62
2019-05-07T16:12:14.587Z,52.50
2019-05-07T16:14:43.959Z,52.72
2019-05-07T16:17:14.992Z,53.04
2019-05-07T16:19:44.348Z,53.48
2019-05-07T16:22:15.465Z,53.30
2019-05-07T16:24:44.852Z,53.99
2019-05-07T16:27:14.197Z,53.91
2019-05-07T16:29:43.609Z,54.06
2019-05-07T16:32:12.982Z,54.34
2019-05-07T16:34:42.934Z,53.99
2019-05-07T16:37:12.591Z,54.19
2019-05-07T16:39:42.748Z,55.06
2019-05-07T16:42:12.203Z,54.51
2019-05-07T16:44:41.899Z,54.78
2019-05-07T16:47:12.193Z,54.93
2019-05-07T16:49:42.454Z,54.84
2019-05-07T16:52:12.189Z,54.80
2019-05-07T16:54:42.663Z,55.23
2019-05-07T16:57:17.313Z,55.05
2019-05-07T16:59:46.763Z,55.21
2019-05-07T17:02:17.756Z,55.51
2019-05-07T17:05:06.212Z,55.46
2019-05-07T17:07:37.226Z,55.45
2019-05-07T17:10:11.648Z,55.84
2019-05-07T17:12:43.963Z,56.03
2019-05-07T17:15:13.509Z,55.95
2019-05-07T17:17:42.892Z,56.16
2019-05-07T17:20:12.843Z,56.58
2019-05-07T17:22:42.738Z,56.59
2019-05-07T17:25:30.147Z,56.63
2019-05-07T17:27:59.551Z,56.84
2019-05-07T17:30:29.108Z,57.04
2019-05-07T17:32:58.593Z,57.09
2019-05-07T17:35:28.053Z,57.11
2019-05-07T17:38:06.321Z,57.29
2019-05-07T17:40:28.692Z,57.22
2019-05-07T17:42:58.060Z,57.68
2019-05-07T17:45:27.450Z,57.79
2019-05-07T17:47:56.909Z,57.96
2019-05-07T17:50:27.942Z,57.80
2019-05-07T17:52:57.384Z,57.86
2019-05-07T17:55:26.788Z,57.79
2019-05-07T17:57:56.262Z,57.86
2019-05-07T18:00:25.741Z,57.92
2019-05-07T18:03:13.105Z,57.77
2019-05-07T18:05:42.710Z,57.67
2019-05-07T18:08:12.611Z,57.65
2019-05-07T18:10:42.514Z,57.63
2019-05-07T18:13:11.986Z,57.57
2019-05-07T18:15:42.751Z,57.77
2019-05-07T18:18:12.963Z,57.70
2019-05-07T18:20:42.552Z,57.69
2019-05-07T18:23:16.811Z,57.63
2019-05-07T18:25:43.085Z,57.54
2019-05-07T18:28:13.040Z,57.57
2019-05-07T18:30:42.510Z,57.46
2019-05-07T18:33:16.240Z,57.51
2019-05-07T18:35:47.259Z,57.54
2019-05-07T18:38:16.726Z,57.64
2019-05-07T18:40:46.189Z,57.41
2019-05-07T18:43:15.565Z,57.27
2019-05-07T18:45:45.027Z,57.43
2019-05-07T18:48:14.454Z,57.21
2019-05-07T18:50:43.885Z,57.09
2019-05-07T18:53:13.279Z,57.15
2019-05-07T18:55:42.781Z,57.33
2019-05-07T18:58:13.357Z,56.97
2019-05-07T19:00:44.606Z,57.34
2019-05-07T19:03:14.053Z,57.38
2019-05-07T19:05:43.468Z,57.36
2019-05-07T19:08:12.906Z,57.29
2019-05-07T19:10:42.916Z,57.13
2019-05-07T19:13:12.717Z,57.30
2019-05-07T19:15:42.455Z,57.50
2019-05-07T19:18:13.553Z,57.40
2019-05-07T19:20:42.926Z,57.05
2019-05-07T19:23:12.352Z,57.00
2019-05-07T19:25:42.154Z,56.95
2019-05-07T19:28:14.670Z,56.91
2019-05-07T19:30:42.846Z,57.06
2019-05-07T19:33:12.534Z,56.79
2019-05-07T19:35:42.012Z,56.83
2019-05-07T19:38:11.472Z,57.19
2019-05-07T19:40:42.019Z,56.82
2019-05-07T19:43:11.635Z,56.90
2019-05-07T19:45:41.850Z,56.56
2019-05-07T19:48:12.417Z,56.83
2019-05-07T19:50:42.075Z,56.74
2019-05-07T19:53:12.507Z,56.81
2019-05-07T19:56:02.020Z,56.82
2019-05-07T19:58:32.706Z,56.98
2019-05-07T20:01:03.662Z,57.10
2019-05-07T20:03:33.098Z,57.21
2019-05-07T20:06:02.595Z,57.32
2019-05-07T20:08:32.489Z,57.09
2019-05-07T20:11:03.525Z,57.24
2019-05-07T20:13:32.924Z,57.28
2019-05-07T20:16:12.092Z,57.20
2019-05-07T20:18:42.870Z,57.29
2019-05-07T20:21:12.591Z,57.34
2019-05-07T20:23:43.446Z,57.68
2019-05-07T20:26:12.878Z,57.76
2019-05-07T20:28:42.226Z,57.74
2019-05-07T20:31:12.206Z,57.84
2019-05-07T20:33:42.422Z,57.87
2019-05-07T20:36:12.098Z,58.33
2019-05-07T20:38:42.759Z,58.29
2019-05-07T20:41:13.670Z,58.50
2019-05-07T20:43:46.035Z,58.51
2019-05-07T20:46:15.405Z,58.67
2019-05-07T20:48:45.078Z,58.85
2019-05-07T20:51:14.441Z,59.01
2019-05-07T20:53:52.251Z,59.10
2019-05-07T20:56:23.544Z,59.00
2019-05-07T20:58:52.978Z,59.19
2019-05-07T21:01:22.457Z,59.01
2019-05-07T21:03:52.747Z,58.97
2019-05-07T21:06:22.653Z,59.14
2019-05-07T21:08:52.203Z,59.04
2019-05-07T21:11:22.715Z,59.02
2019-05-07T21:13:52.538Z,58.82
2019-05-07T21:16:22.269Z,59.10
2019-05-07T21:18:52.815Z,58.88
2019-05-07T21:21:22.528Z,58.72
2019-05-07T21:23:52.680Z,58.52
2019-05-07T21:26:22.701Z,58.73
2019-05-07T21:28:52.873Z,58.19
2019-05-07T21:31:22.867Z,58.21
2019-05-07T21:33:52.613Z,58.25
2019-05-07T21:36:22.797Z,58.17
2019-05-07T21:38:52.551Z,58.39
2019-05-07T21:41:22.640Z,58.32
2019-05-07T21:43:52.820Z,58.29
2019-05-07T21:46:22.585Z,58.35
2019-05-07T21:48:53.770Z,58.44
2019-05-07T21:51:23.273Z,58.31
2019-05-07T21:53:54.342Z,58.31
2019-05-07T21:56:41.721Z,58.32
2019-05-07T21:59:18.911Z,58.50
2019-05-07T22:01:49.913Z,58.26
2019-05-07T22:04:19.296Z,58.25
2019-05-07T22:06:48.799Z,58.30
2019-05-07T22:09:18.730Z,58.42
2019-05-07T22:11:48.124Z,58.28
2019-05-07T22:14:17.633Z,57.93
2019-05-07T22:16:47.007Z,58.12
2019-05-07T22:19:16.364Z,58.07
2019-05-07T22:21:45.799Z,57.80
2019-05-07T22:24:15.339Z,57.91
2019-05-07T22:26:44.796Z,57.81
2019-05-07T22:29:14.274Z,57.95
2019-05-07T22:34:38.204Z,58.03
2019-05-07T22:37:07.555Z,57.86
2019-05-07T22:39:36.914Z,58.16
2019-05-07T22:42:06.285Z,58.29
2019-05-07T22:44:35.683Z,57.89
2019-05-07T22:47:06.690Z,57.89
2019-05-07T22:49:36.060Z,57.93
2019-05-07T22:52:05.470Z,57.86
2019-05-07T22:54:34.823Z,57.71
2019-05-07T22:57:08.564Z,57.65
2019-05-07T22:59:37.952Z,57.45
2019-05-07T23:02:07.392Z,57.49
2019-05-07T23:04:36.790Z,57.43
2019-05-07T23:07:06.159Z,57.37
2019-05-07T23:09:35.531Z,57.24
2019-05-07T23:12:04.918Z,57.14
2019-05-07T23:14:34.284Z,57.03
2019-05-07T23:17:03.654Z,56.89
2019-05-07T23:19:33.077Z,56.98
2019-05-07T23:22:02.885Z,57.13
2019-05-07T23:24:32.363Z,57.37
2019-05-07T23:27:01.739Z,57.29
2019-05-07T23:29:33.050Z,57.31
2019-05-07T23:32:02.224Z,57.23
2019-05-07T23:34:32.578Z,57.18
2019-05-07T23:37:02.603Z,56.87
2019-05-07T23:39:36.444Z,56.96
2019-05-07T23:42:16.355Z,57.09
2019-05-07T23:44:45.852Z,57.11
2019-05-07T23:47:22.615Z,57.21
2019-05-07T23:49:52.353Z,56.81
2019-05-07T23:52:22.620Z,56.87
2019-05-07T23:54:52.273Z,56.69
2019-05-07T23:57:23.156Z,56.61
2019-05-07T23:59:53.099Z,56.64
